sensor_id;sensor_type;location;lat;lon;timestamp;temperature;humidity
18456;DHT22;9357;49.900;8.208;2024-03-02T00:01:12;6.30;99.90
18456;DHT22;9357;49.900;8.208;2024-03-02T00:02:45;6.30;99.90
18456;DHT22;9357;49.900;8.208;2024-03-02T00:04:17;6.30;99.90
18456;DHT22;9357;49.900;8.208;2024-03-02T00:05:52;6.30;99.90
18456;DHT22;9357;49.900;8.208;2024-03-02T00:07:23;6.30;99.90
18456;DHT22;9357;49.900;8.208;2024-03-02T00:08:58;6.20;99.90
18456;DHT22;9357;49.900;8.208;2024-03-02T00:10:37;6.30;99.90
18456;DHT22;9357;49.900;8.208;2024-03-02T00:12:15;6.20;99.90
18456;DHT22;9357;49.900;8.208;2024-03-02T00:13:48;6.30;99.90
18456;DHT22;9357;49.900;8.208;2024-03-02T00:15:39;6.20;99.90
18456;DHT22;9357;49.900;8.208;2024-03-02T00:17:21;6.20;99.90
18456;DHT22;9357;49.900;8.208;2024-03-02T00:19:01;6.20;99.90
18456;DHT22;9357;49.900;8.208;2024-03-02T00:20:34;6.20;99.90
18456;DHT22;9357;49.900;8.208;2024-03-02T00:22:07;6.20;99.90
18456;DHT22;9357;49.900;8.208;2024-03-02T00:23:40;6.20;99.90
18456;DHT22;9357;49.900;8.208;2024-03-02T00:25:13;6.20;99.90
18456;DHT22;9357;49.900;8.208;2024-03-02T00:26:46;6.20;99.90
18456;DHT22;9357;49.900;8.208;2024-03-02T00:28:20;6.20;99.90
18456;DHT22;9357;49.900;8.208;2024-03-02T00:29:52;6.20;99.90
18456;DHT22;9357;49.900;8.208;2024-03-02T00:31:25;6.20;99.90
18456;DHT22;9357;49.900;8.208;2024-03-02T00:32:59;6.20;99.90
18456;DHT22;9357;49.900;8.208;2024-03-02T00:34:32;6.20;99.90
18456;DHT22;9357;49.900;8.208;2024-03-02T00:36:05;6.10;99.90
18456;DHT22;9357;49.900;8.208;2024-03-02T00:37:39;6.10;99.90
18456;DHT22;9357;49.900;8.208;2024-03-02T00:39:12;6.10;99.90
18456;DHT22;9357;49.900;8.208;2024-03-02T00:40:47;6.10;99.90
18456;DHT22;9357;49.900;8.208;2024-03-02T00:42:19;6.10;99.90
18456;DHT22;9357;49.900;8.208;2024-03-02T00:43:57;6.00;99.90
18456;DHT22;9357;49.900;8.208;2024-03-02T00:45:30;6.00;99.90
18456;DHT22;9357;49.900;8.208;2024-03-02T00:47:02;6.00;99.90
18456;DHT22;9357;49.900;8.208;2024-03-02T00:48:35;6.00;99.90
18456;DHT22;9357;49.900;8.208;2024-03-02T00:50:08;6.00;99.90
18456;DHT22;9357;49.900;8.208;2024-03-02T00:51:54;6.00;99.90
18456;DHT22;9357;49.900;8.208;2024-03-02T00:53:29;6.00;99.90
18456;DHT22;9357;49.900;8.208;2024-03-02T00:55:02;5.90;99.90
18456;DHT22;9357;49.900;8.208;2024-03-02T00:56:37;6.00;99.90
18456;DHT22;9357;49.900;8.208;2024-03-02T00:58:09;6.00;99.90
18456;DHT22;9357;49.900;8.208;2024-03-02T00:59:41;5.90;99.90
18456;DHT22;9357;49.900;8.208;2024-03-02T01:01:15;6.00;99.90
18456;DHT22;9357;49.900;8.208;2024-03-02T01:02:48;5.90;99.90
18456;DHT22;9357;49.900;8.208;2024-03-02T01:04:22;6.00;99.90
18456;DHT22;9357;49.900;8.208;2024-03-02T01:05:53;6.00;99.90
18456;DHT22;9357;49.900;8.208;2024-03-02T01:07:26;6.00;99.90
18456;DHT22;9357;49.900;8.208;2024-03-02T01:09:00;6.00;99.90
18456;DHT22;9357;49.900;8.208;2024-03-02T01:10:32;6.00;99.90
18456;DHT22;9357;49.900;8.208;2024-03-02T01:12:05;6.00;99.90
18456;DHT22;9357;49.900;8.208;2024-03-02T01:13:38;6.00;99.90
18456;DHT22;9357;49.900;8.208;2024-03-02T01:15:10;6.00;99.90
18456;DHT22;9357;49.900;8.208;2024-03-02T01:16:43;6.00;99.90
18456;DHT22;9357;49.900;8.208;2024-03-02T01:18:16;6.00;99.90
18456;DHT22;9357;49.900;8.208;2024-03-02T01:19:47;6.00;99.90
18456;DHT22;9357;49.900;8.208;2024-03-02T01:21:20;6.00;99.90
18456;DHT22;9357;49.900;8.208;2024-03-02T01:22:52;6.00;99.90
18456;DHT22;9357;49.900;8.208;2024-03-02T01:24:26;6.00;99.90
18456;DHT22;9357;49.900;8.208;2024-03-02T01:25:58;6.00;99.90
18456;DHT22;9357;49.900;8.208;2024-03-02T01:27:31;6.00;99.90
18456;DHT22;9357;49.900;8.208;2024-03-02T01:29:03;6.00;99.90
18456;DHT22;9357;49.900;8.208;2024-03-02T01:30:36;6.00;99.90
18456;DHT22;9357;49.900;8.208;2024-03-02T01:32:08;5.90;99.90
18456;DHT22;9357;49.900;8.208;2024-03-02T01:33:41;5.90;99.90
18456;DHT22;9357;49.900;8.208;2024-03-02T01:35:13;5.90;99.90
18456;DHT22;9357;49.900;8.208;2024-03-02T01:36:46;5.90;99.90
18456;DHT22;9357;49.900;8.208;2024-03-02T01:38:19;5.90;99.90
18456;DHT22;9357;49.900;8.208;2024-03-02T01:39:52;5.90;99.90
18456;DHT22;9357;49.900;8.208;2024-03-02T01:41:25;5.80;99.90
18456;DHT22;9357;49.900;8.208;2024-03-02T01:42:57;5.80;99.90
18456;DHT22;9357;49.900;8.208;2024-03-02T01:44:30;5.80;99.90
18456;DHT22;9357;49.900;8.208;2024-03-02T01:46:02;5.80;99.90
18456;DHT22;9357;49.900;8.208;2024-03-02T01:47:35;5.80;99.90
18456;DHT22;9357;49.900;8.208;2024-03-02T01:49:07;5.80;99.90
18456;DHT22;9357;49.900;8.208;2024-03-02T01:50:40;5.80;99.90
18456;DHT22;9357;49.900;8.208;2024-03-02T01:52:12;5.80;99.90
18456;DHT22;9357;49.900;8.208;2024-03-02T01:53:44;5.90;99.90
18456;DHT22;9357;49.900;8.208;2024-03-02T01:55:17;5.90;99.90
18456;DHT22;9357;49.900;8.208;2024-03-02T01:56:50;5.90;99.90
18456;DHT22;9357;49.900;8.208;2024-03-02T01:58:22;5.90;99.90
18456;DHT22;9357;49.900;8.208;2024-03-02T01:59:55;5.90;99.90
18456;DHT22;9357;49.900;8.208;2024-03-02T02:01:27;6.00;99.90
18456;DHT22;9357;49.900;8.208;2024-03-02T02:03:03;5.90;99.90
18456;DHT22;9357;49.900;8.208;2024-03-02T02:04:35;5.90;99.90
18456;DHT22;9357;49.900;8.208;2024-03-02T02:06:08;5.90;99.90
18456;DHT22;9357;49.900;8.208;2024-03-02T02:07:40;6.00;99.90
18456;DHT22;9357;49.900;8.208;2024-03-02T02:09:14;6.00;99.90
18456;DHT22;9357;49.900;8.208;2024-03-02T02:10:47;6.00;99.90
18456;DHT22;9357;49.900;8.208;2024-03-02T02:12:20;6.00;99.90
18456;DHT22;9357;49.900;8.208;2024-03-02T02:13:52;6.00;99.90
18456;DHT22;9357;49.900;8.208;2024-03-02T02:15:28;6.00;99.90
18456;DHT22;9357;49.900;8.208;2024-03-02T02:17:02;6.00;99.90
18456;DHT22;9357;49.900;8.208;2024-03-02T02:18:33;6.00;99.90
18456;DHT22;9357;49.900;8.208;2024-03-02T02:20:08;6.00;99.90
18456;DHT22;9357;49.900;8.208;2024-03-02T02:21:43;6.00;99.90
18456;DHT22;9357;49.900;8.208;2024-03-02T02:23:16;6.00;99.90
18456;DHT22;9357;49.900;8.208;2024-03-02T02:24:48;6.10;99.90
18456;DHT22;9357;49.900;8.208;2024-03-02T02:26:20;6.00;99.90
18456;DHT22;9357;49.900;8.208;2024-03-02T02:27:53;6.00;99.90
18456;DHT22;9357;49.900;8.208;2024-03-02T02:29:26;6.00;99.90
18456;DHT22;9357;49.900;8.208;2024-03-02T02:30:58;6.00;99.90
18456;DHT22;9357;49.900;8.208;2024-03-02T02:32:32;6.00;99.90
18456;DHT22;9357;49.900;8.208;2024-03-02T02:34:04;6.00;99.90
18456;DHT22;9357;49.900;8.208;2024-03-02T02:35:37;6.00;99.90
18456;DHT22;9357;49.900;8.208;2024-03-02T02:37:11;6.00;99.90
18456;DHT22;9357;49.900;8.208;2024-03-02T02:38:48;6.00;99.90
18456;DHT22;9357;49.900;8.208;2024-03-02T02:40:20;6.00;99.90
18456;DHT22;9357;49.900;8.208;2024-03-02T02:41:53;6.00;99.90
18456;DHT22;9357;49.900;8.208;2024-03-02T02:43:25;6.00;99.90
18456;DHT22;9357;49.900;8.208;2024-03-02T02:44:58;6.00;99.90
18456;DHT22;9357;49.900;8.208;2024-03-02T02:46:30;5.90;99.90
18456;DHT22;9357;49.900;8.208;2024-03-02T02:48:03;6.00;99.90
18456;DHT22;9357;49.900;8.208;2024-03-02T02:49:35;6.10;99.90
18456;DHT22;9357;49.900;8.208;2024-03-02T02:51:08;6.10;99.90
18456;DHT22;9357;49.900;8.208;2024-03-02T02:52:41;6.00;99.90
18456;DHT22;9357;49.900;8.208;2024-03-02T02:54:14;6.00;99.90
18456;DHT22;9357;49.900;8.208;2024-03-02T02:55:46;6.10;99.90
18456;DHT22;9357;49.900;8.208;2024-03-02T02:57:19;6.10;99.90
18456;DHT22;9357;49.900;8.208;2024-03-02T02:58:51;6.10;99.90
18456;DHT22;9357;49.900;8.208;2024-03-02T03:00:23;6.10;99.90
18456;DHT22;9357;49.900;8.208;2024-03-02T03:01:56;6.10;99.90
18456;DHT22;9357;49.900;8.208;2024-03-02T03:03:28;6.10;99.90
18456;DHT22;9357;49.900;8.208;2024-03-02T03:05:01;6.10;99.90
18456;DHT22;9357;49.900;8.208;2024-03-02T03:06:33;6.10;99.90
18456;DHT22;9357;49.900;8.208;2024-03-02T03:08:08;6.10;99.90
18456;DHT22;9357;49.900;8.208;2024-03-02T03:09:39;6.10;99.90
18456;DHT22;9357;49.900;8.208;2024-03-02T03:11:12;6.10;99.90
18456;DHT22;9357;49.900;8.208;2024-03-02T03:12:44;6.10;99.90
18456;DHT22;9357;49.900;8.208;2024-03-02T03:14:17;6.10;99.90
18456;DHT22;9357;49.900;8.208;2024-03-02T03:15:49;6.10;99.90
18456;DHT22;9357;49.900;8.208;2024-03-02T03:17:22;6.10;99.90
18456;DHT22;9357;49.900;8.208;2024-03-02T03:18:54;6.10;99.90
18456;DHT22;9357;49.900;8.208;2024-03-02T03:20:27;6.10;99.90
18456;DHT22;9357;49.900;8.208;2024-03-02T03:21:58;6.10;99.90
18456;DHT22;9357;49.900;8.208;2024-03-02T03:23:32;6.00;99.90
18456;DHT22;9357;49.900;8.208;2024-03-02T03:25:05;6.00;99.90
18456;DHT22;9357;49.900;8.208;2024-03-02T03:26:39;6.00;99.90
18456;DHT22;9357;49.900;8.208;2024-03-02T03:28:11;6.00;99.90
18456;DHT22;9357;49.900;8.208;2024-03-02T03:29:44;6.00;99.90
18456;DHT22;9357;49.900;8.208;2024-03-02T03:31:16;6.00;99.90
18456;DHT22;9357;49.900;8.208;2024-03-02T03:32:48;6.00;99.90
18456;DHT22;9357;49.900;8.208;2024-03-02T03:34:20;6.10;99.90
18456;DHT22;9357;49.900;8.208;2024-03-02T03:35:53;6.00;99.90
18456;DHT22;9357;49.900;8.208;2024-03-02T03:37:25;6.00;99.90
18456;DHT22;9357;49.900;8.208;2024-03-02T03:39:05;6.00;99.90
18456;DHT22;9357;49.900;8.208;2024-03-02T03:40:37;6.00;99.90
18456;DHT22;9357;49.900;8.208;2024-03-02T03:42:10;6.00;99.90
18456;DHT22;9357;49.900;8.208;2024-03-02T03:43:42;6.10;99.90
18456;DHT22;9357;49.900;8.208;2024-03-02T03:45:15;6.10;99.90
18456;DHT22;9357;49.900;8.208;2024-03-02T03:46:47;6.10;99.90
18456;DHT22;9357;49.900;8.208;2024-03-02T03:48:19;6.10;99.90
18456;DHT22;9357;49.900;8.208;2024-03-02T03:49:51;6.10;99.90
18456;DHT22;9357;49.900;8.208;2024-03-02T03:51:24;6.10;99.90
18456;DHT22;9357;49.900;8.208;2024-03-02T03:52:56;6.10;99.90
18456;DHT22;9357;49.900;8.208;2024-03-02T03:54:30;6.10;99.90
18456;DHT22;9357;49.900;8.208;2024-03-02T03:56:03;6.10;99.90
18456;DHT22;9357;49.900;8.208;2024-03-02T03:57:35;6.10;99.90
18456;DHT22;9357;49.900;8.208;2024-03-02T03:59:07;6.00;99.90
18456;DHT22;9357;49.900;8.208;2024-03-02T04:00:40;6.10;99.90
18456;DHT22;9357;49.900;8.208;2024-03-02T04:02:13;6.00;99.90
18456;DHT22;9357;49.900;8.208;2024-03-02T04:03:45;6.00;99.90
18456;DHT22;9357;49.900;8.208;2024-03-02T04:05:18;6.00;99.90
18456;DHT22;9357;49.900;8.208;2024-03-02T04:06:49;6.00;99.90
18456;DHT22;9357;49.900;8.208;2024-03-02T04:08:22;6.00;99.90
18456;DHT22;9357;49.900;8.208;2024-03-02T04:09:55;6.00;99.90
18456;DHT22;9357;49.900;8.208;2024-03-02T04:11:28;6.00;99.90
18456;DHT22;9357;49.900;8.208;2024-03-02T04:13:00;6.00;99.90
18456;DHT22;9357;49.900;8.208;2024-03-02T04:14:33;5.90;99.90
18456;DHT22;9357;49.900;8.208;2024-03-02T04:16:05;5.90;99.90
18456;DHT22;9357;49.900;8.208;2024-03-02T04:17:38;5.90;99.90
18456;DHT22;9357;49.900;8.208;2024-03-02T04:19:11;5.90;99.90
18456;DHT22;9357;49.900;8.208;2024-03-02T04:20:43;5.90;99.90
18456;DHT22;9357;49.900;8.208;2024-03-02T04:22:15;5.90;99.90
18456;DHT22;9357;49.900;8.208;2024-03-02T04:23:55;5.90;99.90
18456;DHT22;9357;49.900;8.208;2024-03-02T04:25:31;5.90;99.90
18456;DHT22;9357;49.900;8.208;2024-03-02T04:27:04;5.90;99.90
18456;DHT22;9357;49.900;8.208;2024-03-02T04:28:35;5.90;99.90
18456;DHT22;9357;49.900;8.208;2024-03-02T04:30:09;5.80;99.90
18456;DHT22;9357;49.900;8.208;2024-03-02T04:31:41;5.80;99.90
18456;DHT22;9357;49.900;8.208;2024-03-02T04:33:13;5.80;99.90
18456;DHT22;9357;49.900;8.208;2024-03-02T04:34:45;5.80;99.90
18456;DHT22;9357;49.900;8.208;2024-03-02T04:36:18;5.80;99.90
18456;DHT22;9357;49.900;8.208;2024-03-02T04:37:51;5.80;99.90
18456;DHT22;9357;49.900;8.208;2024-03-02T04:39:23;5.80;99.90
18456;DHT22;9357;49.900;8.208;2024-03-02T04:40:57;5.80;99.90
18456;DHT22;9357;49.900;8.208;2024-03-02T04:42:29;5.80;99.90
18456;DHT22;9357;49.900;8.208;2024-03-02T04:44:02;5.80;99.90
18456;DHT22;9357;49.900;8.208;2024-03-02T04:45:34;5.80;99.90
18456;DHT22;9357;49.900;8.208;2024-03-02T04:47:07;5.70;99.90
18456;DHT22;9357;49.900;8.208;2024-03-02T04:48:39;5.80;99.90
18456;DHT22;9357;49.900;8.208;2024-03-02T04:50:12;5.70;99.90
18456;DHT22;9357;49.900;8.208;2024-03-02T04:51:43;5.70;99.90
18456;DHT22;9357;49.900;8.208;2024-03-02T04:53:16;5.70;99.90
18456;DHT22;9357;49.900;8.208;2024-03-02T04:54:49;5.70;99.90
18456;DHT22;9357;49.900;8.208;2024-03-02T04:56:41;5.60;99.90
18456;DHT22;9357;49.900;8.208;2024-03-02T04:58:21;5.60;99.90
18456;DHT22;9357;49.900;8.208;2024-03-02T04:59:53;5.60;99.90
18456;DHT22;9357;49.900;8.208;2024-03-02T05:01:25;5.60;99.90
18456;DHT22;9357;49.900;8.208;2024-03-02T05:02:57;5.60;99.90
18456;DHT22;9357;49.900;8.208;2024-03-02T05:04:30;5.50;99.90
18456;DHT22;9357;49.900;8.208;2024-03-02T05:06:03;5.50;99.90
18456;DHT22;9357;49.900;8.208;2024-03-02T05:07:35;5.50;99.90
18456;DHT22;9357;49.900;8.208;2024-03-02T05:09:08;5.40;99.90
18456;DHT22;9357;49.900;8.208;2024-03-02T05:10:40;5.40;99.90
18456;DHT22;9357;49.900;8.208;2024-03-02T05:12:15;5.40;99.90
18456;DHT22;9357;49.900;8.208;2024-03-02T05:14:12;5.40;99.90
18456;DHT22;9357;49.900;8.208;2024-03-02T05:15:44;5.40;99.90
18456;DHT22;9357;49.900;8.208;2024-03-02T05:17:17;5.40;99.90
18456;DHT22;9357;49.900;8.208;2024-03-02T05:18:50;5.40;99.90
18456;DHT22;9357;49.900;8.208;2024-03-02T05:20:22;5.40;99.90
18456;DHT22;9357;49.900;8.208;2024-03-02T05:21:55;5.40;99.90
18456;DHT22;9357;49.900;8.208;2024-03-02T05:23:27;5.40;99.90
18456;DHT22;9357;49.900;8.208;2024-03-02T05:25:00;5.40;99.90
18456;DHT22;9357;49.900;8.208;2024-03-02T05:26:32;5.30;99.90
18456;DHT22;9357;49.900;8.208;2024-03-02T05:28:06;5.40;99.90
18456;DHT22;9357;49.900;8.208;2024-03-02T05:29:38;5.30;99.90
18456;DHT22;9357;49.900;8.208;2024-03-02T05:31:11;5.30;99.90
18456;DHT22;9357;49.900;8.208;2024-03-02T05:32:46;5.40;99.90
18456;DHT22;9357;49.900;8.208;2024-03-02T05:34:19;5.40;99.90
18456;DHT22;9357;49.900;8.208;2024-03-02T05:35:51;5.40;99.90
18456;DHT22;9357;49.900;8.208;2024-03-02T05:37:25;5.40;99.90
18456;DHT22;9357;49.900;8.208;2024-03-02T05:38:56;5.40;99.90
18456;DHT22;9357;49.900;8.208;2024-03-02T05:40:29;5.30;99.90
18456;DHT22;9357;49.900;8.208;2024-03-02T05:42:01;5.40;99.90
18456;DHT22;9357;49.900;8.208;2024-03-02T05:43:36;5.40;99.90
18456;DHT22;9357;49.900;8.208;2024-03-02T05:45:08;5.40;99.90
18456;DHT22;9357;49.900;8.208;2024-03-02T05:46:41;5.80;99.90
18456;DHT22;9357;49.900;8.208;2024-03-02T05:48:13;5.40;99.90
18456;DHT22;9357;49.900;8.208;2024-03-02T05:49:46;5.40;99.90
18456;DHT22;9357;49.900;8.208;2024-03-02T05:51:18;5.40;99.90
18456;DHT22;9357;49.900;8.208;2024-03-02T05:52:51;5.40;99.90
18456;DHT22;9357;49.900;8.208;2024-03-02T05:54:23;5.50;99.90
18456;DHT22;9357;49.900;8.208;2024-03-02T05:55:55;5.40;99.90
18456;DHT22;9357;49.900;8.208;2024-03-02T05:57:27;5.50;99.90
18456;DHT22;9357;49.900;8.208;2024-03-02T05:59:18;5.50;99.90
18456;DHT22;9357;49.900;8.208;2024-03-02T06:00:51;5.50;99.90
18456;DHT22;9357;49.900;8.208;2024-03-02T06:02:22;5.50;99.90
18456;DHT22;9357;49.900;8.208;2024-03-02T06:03:55;5.60;99.90
18456;DHT22;9357;49.900;8.208;2024-03-02T06:05:27;5.60;99.90
18456;DHT22;9357;49.900;8.208;2024-03-02T06:07:00;5.60;99.90
18456;DHT22;9357;49.900;8.208;2024-03-02T06:08:33;5.60;99.90
18456;DHT22;9357;49.900;8.208;2024-03-02T06:10:06;5.70;99.90
18456;DHT22;9357;49.900;8.208;2024-03-02T06:11:44;5.70;99.90
18456;DHT22;9357;49.900;8.208;2024-03-02T06:13:16;5.70;99.90
18456;DHT22;9357;49.900;8.208;2024-03-02T06:14:50;5.70;99.90
18456;DHT22;9357;49.900;8.208;2024-03-02T06:16:22;5.70;99.90
18456;DHT22;9357;49.900;8.208;2024-03-02T06:17:55;5.70;99.90
18456;DHT22;9357;49.900;8.208;2024-03-02T06:19:27;5.80;99.90
18456;DHT22;9357;49.900;8.208;2024-03-02T06:21:00;5.80;99.90
18456;DHT22;9357;49.900;8.208;2024-03-02T06:22:32;5.80;99.90
18456;DHT22;9357;49.900;8.208;2024-03-02T06:24:06;5.80;99.90
18456;DHT22;9357;49.900;8.208;2024-03-02T06:25:38;5.80;99.90
18456;DHT22;9357;49.900;8.208;2024-03-02T06:27:11;5.80;99.90
18456;DHT22;9357;49.900;8.208;2024-03-02T06:28:42;5.80;99.90
18456;DHT22;9357;49.900;8.208;2024-03-02T06:30:17;5.90;99.90
18456;DHT22;9357;49.900;8.208;2024-03-02T06:31:49;5.80;99.90
18456;DHT22;9357;49.900;8.208;2024-03-02T06:33:25;5.90;99.90
18456;DHT22;9357;49.900;8.208;2024-03-02T06:34:57;5.90;99.90
18456;DHT22;9357;49.900;8.208;2024-03-02T06:36:31;5.90;99.90
18456;DHT22;9357;49.900;8.208;2024-03-02T06:38:03;5.90;99.90
18456;DHT22;9357;49.900;8.208;2024-03-02T06:39:36;5.90;99.90
18456;DHT22;9357;49.900;8.208;2024-03-02T06:41:08;5.90;99.90
18456;DHT22;9357;49.900;8.208;2024-03-02T06:42:41;5.90;99.90
18456;DHT22;9357;49.900;8.208;2024-03-02T06:44:13;6.00;99.90
18456;DHT22;9357;49.900;8.208;2024-03-02T06:45:47;6.00;99.90
18456;DHT22;9357;49.900;8.208;2024-03-02T06:47:19;6.00;99.90
18456;DHT22;9357;49.900;8.208;2024-03-02T06:48:52;6.00;99.90
18456;DHT22;9357;49.900;8.208;2024-03-02T06:50:24;6.00;99.90
18456;DHT22;9357;49.900;8.208;2024-03-02T06:51:56;6.00;99.90
18456;DHT22;9357;49.900;8.208;2024-03-02T06:53:29;6.00;99.90
18456;DHT22;9357;49.900;8.208;2024-03-02T06:55:03;6.00;99.90
18456;DHT22;9357;49.900;8.208;2024-03-02T06:56:35;6.00;99.90
18456;DHT22;9357;49.900;8.208;2024-03-02T06:58:09;6.00;99.90
18456;DHT22;9357;49.900;8.208;2024-03-02T06:59:40;6.00;99.90
18456;DHT22;9357;49.900;8.208;2024-03-02T07:01:15;6.00;99.90
18456;DHT22;9357;49.900;8.208;2024-03-02T07:02:46;6.00;99.90
18456;DHT22;9357;49.900;8.208;2024-03-02T07:04:19;6.00;99.90
18456;DHT22;9357;49.900;8.208;2024-03-02T07:05:51;6.00;99.90
18456;DHT22;9357;49.900;8.208;2024-03-02T07:07:24;6.00;99.90
18456;DHT22;9357;49.900;8.208;2024-03-02T07:08:55;6.00;99.90
18456;DHT22;9357;49.900;8.208;2024-03-02T07:10:28;6.00;99.90
18456;DHT22;9357;49.900;8.208;2024-03-02T07:12:00;6.00;99.90
18456;DHT22;9357;49.900;8.208;2024-03-02T07:13:33;6.00;99.90
18456;DHT22;9357;49.900;8.208;2024-03-02T07:15:06;6.00;99.90
18456;DHT22;9357;49.900;8.208;2024-03-02T07:17:02;6.00;99.90
18456;DHT22;9357;49.900;8.208;2024-03-02T07:18:34;6.00;99.90
18456;DHT22;9357;49.900;8.208;2024-03-02T07:20:12;6.00;99.90
18456;DHT22;9357;49.900;8.208;2024-03-02T07:21:44;6.10;99.90
18456;DHT22;9357;49.900;8.208;2024-03-02T07:23:17;6.10;99.90
18456;DHT22;9357;49.900;8.208;2024-03-02T07:24:49;6.10;99.90
18456;DHT22;9357;49.900;8.208;2024-03-02T07:26:22;6.10;99.90
18456;DHT22;9357;49.900;8.208;2024-03-02T07:27:57;6.10;99.90
18456;DHT22;9357;49.900;8.208;2024-03-02T07:29:30;6.10;99.90
18456;DHT22;9357;49.900;8.208;2024-03-02T07:31:03;6.10;99.90
18456;DHT22;9357;49.900;8.208;2024-03-02T07:32:38;6.10;99.90
18456;DHT22;9357;49.900;8.208;2024-03-02T07:34:11;6.20;99.90
18456;DHT22;9357;49.900;8.208;2024-03-02T07:35:43;6.20;99.90
18456;DHT22;9357;49.900;8.208;2024-03-02T07:37:15;6.20;99.90
18456;DHT22;9357;49.900;8.208;2024-03-02T07:38:48;6.20;99.90
18456;DHT22;9357;49.900;8.208;2024-03-02T07:40:22;6.20;99.90
18456;DHT22;9357;49.900;8.208;2024-03-02T07:41:55;6.30;99.90
18456;DHT22;9357;49.900;8.208;2024-03-02T07:43:26;6.30;99.90
18456;DHT22;9357;49.900;8.208;2024-03-02T07:44:59;6.40;99.90
18456;DHT22;9357;49.900;8.208;2024-03-02T07:46:31;6.40;99.90
18456;DHT22;9357;49.900;8.208;2024-03-02T07:48:06;6.40;99.90
18456;DHT22;9357;49.900;8.208;2024-03-02T07:49:38;6.40;99.90
18456;DHT22;9357;49.900;8.208;2024-03-02T07:51:11;6.50;99.90
18456;DHT22;9357;49.900;8.208;2024-03-02T07:52:45;6.50;99.90
18456;DHT22;9357;49.900;8.208;2024-03-02T07:54:17;6.60;99.90
18456;DHT22;9357;49.900;8.208;2024-03-02T07:55:50;6.50;99.90
18456;DHT22;9357;49.900;8.208;2024-03-02T07:57:22;6.60;99.90
18456;DHT22;9357;49.900;8.208;2024-03-02T07:58:55;6.60;99.90
18456;DHT22;9357;49.900;8.208;2024-03-02T08:00:29;6.60;99.90
18456;DHT22;9357;49.900;8.208;2024-03-02T08:02:02;6.70;99.90
18456;DHT22;9357;49.900;8.208;2024-03-02T08:03:35;6.70;99.90
18456;DHT22;9357;49.900;8.208;2024-03-02T08:05:09;6.70;99.90
18456;DHT22;9357;49.900;8.208;2024-03-02T08:06:41;6.80;99.90
18456;DHT22;9357;49.900;8.208;2024-03-02T08:08:14;6.80;99.90
18456;DHT22;9357;49.900;8.208;2024-03-02T08:09:46;6.80;99.90
18456;DHT22;9357;49.900;8.208;2024-03-02T08:11:19;6.90;99.90
18456;DHT22;9357;49.900;8.208;2024-03-02T08:12:51;6.90;99.90
18456;DHT22;9357;49.900;8.208;2024-03-02T08:14:24;7.00;99.90
18456;DHT22;9357;49.900;8.208;2024-03-02T08:15:55;7.00;99.90
18456;DHT22;9357;49.900;8.208;2024-03-02T08:17:28;7.00;99.90
18456;DHT22;9357;49.900;8.208;2024-03-02T08:19:01;7.10;99.90
18456;DHT22;9357;49.900;8.208;2024-03-02T08:20:35;7.10;99.90
18456;DHT22;9357;49.900;8.208;2024-03-02T08:22:07;7.10;99.90
18456;DHT22;9357;49.900;8.208;2024-03-02T08:23:40;7.20;99.90
18456;DHT22;9357;49.900;8.208;2024-03-02T08:25:15;7.20;99.90
18456;DHT22;9357;49.900;8.208;2024-03-02T08:26:48;7.30;99.90
18456;DHT22;9357;49.900;8.208;2024-03-02T08:28:21;7.30;99.90
18456;DHT22;9357;49.900;8.208;2024-03-02T08:29:52;7.30;99.90
18456;DHT22;9357;49.900;8.208;2024-03-02T08:31:25;7.40;99.90
18456;DHT22;9357;49.900;8.208;2024-03-02T08:32:57;7.40;99.90
18456;DHT22;9357;49.900;8.208;2024-03-02T08:34:31;7.40;99.90
18456;DHT22;9357;49.900;8.208;2024-03-02T08:36:04;7.40;99.90
18456;DHT22;9357;49.900;8.208;2024-03-02T08:37:38;7.50;99.90
18456;DHT22;9357;49.900;8.208;2024-03-02T08:39:12;7.50;99.90
18456;DHT22;9357;49.900;8.208;2024-03-02T08:40:46;7.50;99.90
18456;DHT22;9357;49.900;8.208;2024-03-02T08:42:19;7.60;99.90
18456;DHT22;9357;49.900;8.208;2024-03-02T08:43:51;7.70;99.90
18456;DHT22;9357;49.900;8.208;2024-03-02T08:45:24;7.60;99.90
18456;DHT22;9357;49.900;8.208;2024-03-02T08:46:56;7.70;99.90
18456;DHT22;9357;49.900;8.208;2024-03-02T08:48:29;7.70;99.90
18456;DHT22;9357;49.900;8.208;2024-03-02T08:50:02;7.80;99.90
18456;DHT22;9357;49.900;8.208;2024-03-02T08:51:35;7.90;99.90
18456;DHT22;9357;49.900;8.208;2024-03-02T08:53:07;7.90;99.90
18456;DHT22;9357;49.900;8.208;2024-03-02T08:54:40;8.00;99.90
18456;DHT22;9357;49.900;8.208;2024-03-02T08:56:13;8.10;99.90
18456;DHT22;9357;49.900;8.208;2024-03-02T08:57:45;8.10;99.90
18456;DHT22;9357;49.900;8.208;2024-03-02T08:59:17;8.20;99.90
18456;DHT22;9357;49.900;8.208;2024-03-02T09:00:49;8.20;99.90
18456;DHT22;9357;49.900;8.208;2024-03-02T09:02:22;8.30;99.90
18456;DHT22;9357;49.900;8.208;2024-03-02T09:03:54;8.40;99.90
18456;DHT22;9357;49.900;8.208;2024-03-02T09:05:29;8.30;99.90
18456;DHT22;9357;49.900;8.208;2024-03-02T09:07:01;8.40;99.90
18456;DHT22;9357;49.900;8.208;2024-03-02T09:08:33;8.40;99.90
18456;DHT22;9357;49.900;8.208;2024-03-02T09:10:08;8.40;99.90
18456;DHT22;9357;49.900;8.208;2024-03-02T09:11:41;8.40;99.90
18456;DHT22;9357;49.900;8.208;2024-03-02T09:13:14;8.40;99.90
18456;DHT22;9357;49.900;8.208;2024-03-02T09:14:46;8.50;99.90
18456;DHT22;9357;49.900;8.208;2024-03-02T09:16:19;8.50;99.90
18456;DHT22;9357;49.900;8.208;2024-03-02T09:17:51;8.50;99.90
18456;DHT22;9357;49.900;8.208;2024-03-02T09:19:24;8.60;99.90
18456;DHT22;9357;49.900;8.208;2024-03-02T09:20:57;8.60;99.90
18456;DHT22;9357;49.900;8.208;2024-03-02T09:22:30;8.60;99.90
18456;DHT22;9357;49.900;8.208;2024-03-02T09:24:04;8.60;99.90
18456;DHT22;9357;49.900;8.208;2024-03-02T09:25:38;8.70;99.90
18456;DHT22;9357;49.900;8.208;2024-03-02T09:27:11;8.70;99.90
18456;DHT22;9357;49.900;8.208;2024-03-02T09:28:43;8.70;99.90
18456;DHT22;9357;49.900;8.208;2024-03-02T09:30:15;8.80;99.90
18456;DHT22;9357;49.900;8.208;2024-03-02T09:31:48;8.80;99.90
18456;DHT22;9357;49.900;8.208;2024-03-02T09:33:21;8.80;99.90
18456;DHT22;9357;49.900;8.208;2024-03-02T09:34:54;8.80;99.90
18456;DHT22;9357;49.900;8.208;2024-03-02T09:36:28;8.80;99.90
18456;DHT22;9357;49.900;8.208;2024-03-02T09:38:01;8.80;99.90
18456;DHT22;9357;49.900;8.208;2024-03-02T09:39:35;8.80;99.90
18456;DHT22;9357;49.900;8.208;2024-03-02T09:41:07;8.80;99.90
18456;DHT22;9357;49.900;8.208;2024-03-02T09:42:40;8.80;99.90
18456;DHT22;9357;49.900;8.208;2024-03-02T09:44:13;8.70;99.90
18456;DHT22;9357;49.900;8.208;2024-03-02T09:45:46;8.80;99.90
18456;DHT22;9357;49.900;8.208;2024-03-02T09:47:18;8.70;99.90
18456;DHT22;9357;49.900;8.208;2024-03-02T09:48:51;8.70;99.90
18456;DHT22;9357;49.900;8.208;2024-03-02T09:50:24;8.70;99.90
18456;DHT22;9357;49.900;8.208;2024-03-02T09:51:57;8.70;99.90
18456;DHT22;9357;49.900;8.208;2024-03-02T09:53:32;8.70;99.90
18456;DHT22;9357;49.900;8.208;2024-03-02T09:55:04;8.80;99.90
18456;DHT22;9357;49.900;8.208;2024-03-02T09:56:38;8.90;99.90
18456;DHT22;9357;49.900;8.208;2024-03-02T09:58:10;9.00;99.90
18456;DHT22;9357;49.900;8.208;2024-03-02T09:59:43;9.10;99.90
18456;DHT22;9357;49.900;8.208;2024-03-02T10:01:17;9.20;99.90
18456;DHT22;9357;49.900;8.208;2024-03-02T10:02:49;9.40;99.90
18456;DHT22;9357;49.900;8.208;2024-03-02T10:04:23;9.50;99.90
18456;DHT22;9357;49.900;8.208;2024-03-02T10:05:55;9.60;99.90
18456;DHT22;9357;49.900;8.208;2024-03-02T10:07:29;9.70;99.90
18456;DHT22;9357;49.900;8.208;2024-03-02T10:09:01;9.70;99.90